Western King — CY7367 — position and weather

sailwx.info

Track history (hours):
 
Tides and Currents Weather Stations Pressure Air Temp Water Temp Dewpoint Dewpoint Depression Visibility Wind Speed Wind Dir Waves Ship Positions

Western King

Last reported at 2015-Mar-19 21:33 UTC. Time now 2015-Mar-28 22:17 UTC.
Position N 49°39' W 124°47'.
Warning: this ship's position is 9 days out of date.

Length 23 m; draft 3.8 m.

Type: Fishing. MMSI: 316003779.

Date/timePositionNaut miles runAvg speedWind from/ knotsBaromVisibWave heightAir tempDewpointWater temp
2015-Mar-19 21:33N 49°39' W 124°47'10 9.6
2015-Mar-19 20:33N 49°30' W 124°42'9 9.3
2015-Mar-19 19:33N 49°24' W 124°30'9 9.1
2015-Mar-19 18:33N 49°20' W 124°17'9 9.0
2015-Mar-19 17:32N 49°16' W 124°05'9 8.8
2015-Mar-19 16:31N 49°10' W 123°55'1 0.8
2015-Mar-19 15:20N 49°10' W 123°56'0 0.0
2015-Mar-19 14:19N 49°10' W 123°56'0 0.0
2015-Mar-19 13:31N 49°10' W 123°56'0 0.0
2015-Mar-19 12:33N 49°10' W 123°56'0 0.0
2015-Mar-19 11:33N 49°10' W 123°56'0 0.0
2015-Mar-19 10:33N 49°10' W 123°56'0 0.0
2015-Mar-19 09:34N 49°10' W 123°56'0 0.0
2015-Mar-19 08:33N 49°10' W 123°56'0 0.0
2015-Mar-19 07:33N 49°10' W 123°56'0 0.0
2015-Mar-19 06:33N 49°10' W 123°56'0 0.0
2015-Mar-19 05:33N 49°10' W 123°56'0 0.0
2015-Mar-19 04:33N 49°10' W 123°56'0 0.0
2015-Mar-19 03:29N 49°10' W 123°56'0 0.0
2015-Mar-19 02:33N 49°10' W 123°56'0 0.0
2015-Mar-19 01:33N 49°10' W 123°56'0 0.0
2015-Mar-19 00:13N 49°10' W 123°56'1 1.0
2015-Mar-18 23:33N 49°10' W 123°55'3 2.9
2015-Mar-18 22:33N 49°13' W 123°54'6 6.3
2015-Mar-18 21:31N 49°16' W 124°03'8 6.0
2015-Mar-18 20:09N 49°19' W 124°14'3 5.2
2015-Mar-18 19:32N 49°18' W 124°10'10 9.8
2015-Mar-18 18:33N 49°14' W 123°57'10 9.1
2015-Mar-18 17:26N 49°06' W 123°46'4 4.4
2015-Mar-18 16:33N 49°04' W 123°41'3 2.8
2015-Mar-18 15:32N 49°05' W 123°45'6 5.6
2015-Mar-18 14:28N 49°09' W 123°52'3 2.8
2015-Mar-18 13:33N 49°10' W 123°56'0 0.0
2015-Mar-18 12:33N 49°10' W 123°56'0 0.0
2015-Mar-18 11:33N 49°10' W 123°56'0 0.0
2015-Mar-18 10:33N 49°10' W 123°56'0 0.0
2015-Mar-18 09:33N 49°10' W 123°56'0 0.0
2015-Mar-18 08:33N 49°10' W 123°56'0 0.0
2015-Mar-18 07:33N 49°10' W 123°56'0 0.0
2015-Mar-18 06:32N 49°10' W 123°56'0 0.0
2015-Mar-18 05:15N 49°10' W 123°56'0 0.0
2015-Mar-18 04:25N 49°10' W 123°56'0 0.0
2015-Mar-18 03:29N 49°10' W 123°56'0 0.0
2015-Mar-18 02:33N 49°10' W 123°56'0 0.0
2015-Mar-18 01:33N 49°10' W 123°56'0 0.0
2015-Mar-18 00:26N 49°10' W 123°56'0 0.0
2015-Mar-17 23:08N 49°10' W 123°56'0 0.0
2015-Mar-17 22:09N 49°10' W 123°56'0 0.0
2015-Mar-17 21:33N 49°10' W 123°56'0 0.0
2015-Mar-17 20:33N 49°10' W 123°56'0 0.0
2015-Mar-17 19:32N 49°10' W 123°56'0 0.0
2015-Mar-17 18:33N 49°10' W 123°56'0 0.0
2015-Mar-17 17:32N 49°10' W 123°56'0 0.0
2015-Mar-17 16:33N 49°10' W 123°56'0 0.0
2015-Mar-17 15:33N 49°10' W 123°56'0 0.0
2015-Mar-17 14:33N 49°10' W 123°56'0 0.0
2015-Mar-17 13:33N 49°10' W 123°56'0 0.0
2015-Mar-17 12:33N 49°10' W 123°56'0 0.0
2015-Mar-17 11:33N 49°10' W 123°56'0 0.0
2015-Mar-17 10:33N 49°10' W 123°56'0 0.0
2015-Mar-17 09:33N 49°10' W 123°56'0 0.0
2015-Mar-17 08:33N 49°10' W 123°56'0 0.0
2015-Mar-17 07:33N 49°10' W 123°56'0 0.0
2015-Mar-17 06:33N 49°10' W 123°56'0 0.0
2015-Mar-17 05:33N 49°10' W 123°56'0 0.0
2015-Mar-17 04:33N 49°10' W 123°56'0 0.0
2015-Mar-17 03:16N 49°10' W 123°56'0 0.0
2015-Mar-17 02:15N 49°10' W 123°56'0 0.0
2015-Mar-17 01:33N 49°10' W 123°56'0 0.0
2015-Mar-17 00:21N 49°10' W 123°56'0 0.0
2015-Mar-16 23:28N 49°10' W 123°56'1 1.6
2015-Mar-16 22:33N 49°11' W 123°55'3 3.0
2015-Mar-16 21:33N 49°14' W 123°57'0 0.0
2015-Mar-16 20:32N 49°14' W 123°57'0 0.4
2015-Mar-16 19:33N 49°14' W 123°58'0 0.2
2015-Mar-16 18:33N 49°14' W 123°58'7 6.8
2015-Mar-16 17:33N 49°17' W 124°07'5 4.4
2015-Mar-16 16:33N 49°20' W 124°12'0 0.2
2015-Mar-16 15:33N 49°20' W 124°13'1 1.0
2015-Mar-16 14:32N 49°20' W 124°14'5 5.1
2015-Mar-16 13:33N 49°21' W 124°21'0 0.0
2015-Mar-16 12:33N 49°21' W 124°21'0 0.0
2015-Mar-16 11:33N 49°21' W 124°21'0 0.0
2015-Mar-16 10:33N 49°21' W 124°21'0 0.0
2015-Mar-16 09:33N 49°21' W 124°21'0 0.0
2015-Mar-16 08:33N 49°21' W 124°21'0 0.0
2015-Mar-16 07:33N 49°21' W 124°21'0 0.0
2015-Mar-15 23:25N 49°21' W 124°21'5 1.2
2015-Mar-15 19:09N 49°20' W 124°13'5 8.6
2015-Mar-15 18:33N 49°17' W 124°07'2 1.5
2015-Mar-15 17:29N 49°18' W 124°09'3 3.1
2015-Mar-15 16:33N 49°19' W 124°13'0 0.2
2015-Mar-15 15:33N 49°19' W 124°13'0 0.1
2015-Mar-15 14:33N 49°19' W 124°13'6 5.6
2015-Mar-15 13:33N 49°21' W 124°21'0 0.0
2015-Mar-15 12:33N 49°21' W 124°21'0 0.0
2015-Mar-15 11:33N 49°21' W 124°21'0 0.0
2015-Mar-15 10:33N 49°21' W 124°21'0 0.0
2015-Mar-15 09:33N 49°21' W 124°21'0 0.0
2015-Mar-15 08:33N 49°21' W 124°21'0 0.0
2015-Mar-15 07:33N 49°21' W 124°21'0 0.0
2015-Mar-15 06:13N 49°21' W 124°21'0 0.0
2015-Mar-15 05:31N 49°21' W 124°21'0 0.0
2015-Mar-15 04:29N 49°21' W 124°21'0 0.0
2015-Mar-14 17:14N 49°21' W 124°21'0 0.1
2015-Mar-14 16:31N 49°21' W 124°21'0 0.0
2015-Mar-14 15:29N 49°21' W 124°21'0 0.0
2015-Mar-14 14:27N 49°21' W 124°21'0 0.0
2015-Mar-14 13:14N 49°21' W 124°21'0 0.0
2015-Mar-14 12:26N 49°21' W 124°21'3 0.3
2015-Mar-14 01:33N 49°21' W 124°17'9 9.6
2015-Mar-14 00:34N 49°19' W 124°02'9 9.1
2015-Mar-13 23:34N 49°18' W 123°49'9 9.1
2015-Mar-13 22:33N 49°17' W 123°35'9 9.1
2015-Mar-13 21:34N 49°16' W 123°21'9 9.4
2015-Mar-13 20:33N 49°12' W 123°08'1 1.2
2015-Mar-13 19:34N 49°12' W 123°06'0 0.0
2015-Mar-13 18:34N 49°12' W 123°06'0 0.0
2015-Mar-13 17:34N 49°12' W 123°06'0 0.0
2015-Mar-13 16:33N 49°12' W 123°06'0 0.0
2015-Mar-13 15:34N 49°12' W 123°06'0 0.0
2015-Mar-13 14:34N 49°12' W 123°06'0 0.0
2015-Mar-13 13:34N 49°12' W 123°06'0 0.0
2015-Mar-13 12:34N 49°12' W 123°06'0 0.0
2015-Mar-13 11:34N 49°12' W 123°06'0 0.0
2015-Mar-13 10:34N 49°12' W 123°06'0 0.0
2015-Mar-13 09:34N 49°12' W 123°06'0 0.0
2015-Mar-13 08:34N 49°12' W 123°06'5 4.9
2015-Mar-13 07:34N 49°14' W 123°13'8 8.3
2015-Mar-13 06:34N 49°16' W 123°25'9 8.7
2015-Mar-13 05:33N 49°18' W 123°38'10 8.6
2015-Mar-13 04:24N 49°19' W 123°53'11 8.5
2015-Mar-13 03:07N 49°21' W 124°10'5 8.4
2015-Mar-13 02:33N 49°21' W 124°17'0 0.3
2015-Mar-13 01:33N 49°21' W 124°17'1 0.6
2015-Mar-13 00:33N 49°21' W 124°16'1 0.6
2015-Mar-12 23:32N 49°21' W 124°15'0 0.4
2015-Mar-12 22:32N 49°20' W 124°15'1 0.5
2015-Mar-12 21:33N 49°20' W 124°15'0 0.2
2015-Mar-12 20:33N 49°20' W 124°15'1 1.1
2015-Mar-12 19:33N 49°20' W 124°17'1 0.6
2015-Mar-12 18:33N 49°20' W 124°16'1 0.8
2015-Mar-12 17:32N 49°20' W 124°15'2 2.2
2015-Mar-12 16:31N 49°20' W 124°18'2 0.5
2015-Mar-12 11:32N 49°21' W 124°21'0 0.0
2015-Mar-12 00:27N 49°21' W 124°21'0 0.0
2015-Mar-11 23:08N 49°21' W 124°21'0 0.0
2015-Mar-11 20:06N 49°21' W 124°21'0 0.0
2015-Mar-11 18:23N 49°21' W 124°21'0 0.0
2015-Mar-11 17:31N 49°21' W 124°21'0 0.0
2015-Mar-11 16:27N 49°21' W 124°21'0 0.0
2015-Mar-11 15:09N 49°21' W 124°21'0 0.0
2015-Mar-11 14:32N 49°21' W 124°21'0 0.0
2015-Mar-11 13:33N 49°21' W 124°21'0 0.0
2015-Mar-11 12:28N 49°21' W 124°21'0 0.0
2015-Mar-11 11:09N 49°21' W 124°21'0 0.0
2015-Mar-11 10:21N 49°21' W 124°21'0 0.0
2015-Mar-11 09:28N 49°21' W 124°21'0 0.0
2015-Mar-11 08:25N 49°21' W 124°21'0 0.0
2015-Mar-11 07:24N 49°21' W 124°21'0 0.0
2015-Mar-11 04:22N 49°21' W 124°21'0 0.0
2015-Mar-10 23:24N 49°21' W 124°21'3 1.4
2015-Mar-10 21:20N 49°20' W 124°17'7 8.7
2015-Mar-10 20:32N 49°17' W 124°07'9 8.9
2015-Mar-10 19:33N 49°13' W 123°56'9 8.5
2015-Mar-10 18:32N 49°07' W 123°47'9 8.9
2015-Mar-10 17:33N 49°01' W 123°37'8 8.3
2015-Mar-10 16:33N 48°55' W 123°29'9 8.3
2015-Mar-10 15:31N 48°47' W 123°22'9 9.0
2015-Mar-10 14:32N 48°38' W 123°21'9 9.4
2015-Mar-10 13:33N 48°30' W 123°16'9 8.5
2015-Mar-10 12:33N 48°22' W 123°22'1010.0
2015-Mar-10 11:32N 48°18' W 123°36'1010.1
2015-Mar-10 10:33N 48°20' W 123°51'55 9.1
2015-Mar-10 04:31N 48°40' W 125°08'9 9.5
2015-Mar-10 03:33N 48°45' W 125°20'10 9.8
2015-Mar-10 02:33N 48°50' W 125°32'10 9.7
2015-Mar-10 01:33N 48°56' W 125°43'10 9.5
2015-Mar-10 00:33N 49°02' W 125°56'9 9.1
2015-Mar-09 23:33N 49°07' W 126°07'9 8.5
2015-Mar-09 22:33N 49°12' W 126°18'  
Track history (hours):
 
Tides and Currents Weather Stations Pressure Air Temp Water Temp Dewpoint Dewpoint Depression Visibility Wind Speed Wind Dir Waves Ship Positions

Western King

Last reported at 2015-Mar-19 21:33 UTC. Time now 2015-Mar-28 22:17 UTC.
Position N 49°39' W 124°47'.
Warning: this ship's position is 9 days out of date.

Length 23 m; draft 3.8 m.

Type: Fishing. MMSI: 316003779.

Date/timePositionNaut miles runAvg speedWind from/ knotsBaromVisibWave heightAir tempDewpointWater temp
2015-Mar-19 21:33N 49°39' W 124°47'10 9.6
2015-Mar-19 20:33N 49°30' W 124°42'9 9.3
2015-Mar-19 19:33N 49°24' W 124°30'9 9.1
2015-Mar-19 18:33N 49°20' W 124°17'9 9.0
2015-Mar-19 17:32N 49°16' W 124°05'9 8.8
2015-Mar-19 16:31N 49°10' W 123°55'1 0.8
2015-Mar-19 15:20N 49°10' W 123°56'0 0.0
2015-Mar-19 14:19N 49°10' W 123°56'0 0.0
2015-Mar-19 13:31N 49°10' W 123°56'0 0.0
2015-Mar-19 12:33N 49°10' W 123°56'0 0.0
2015-Mar-19 11:33N 49°10' W 123°56'0 0.0
2015-Mar-19 10:33N 49°10' W 123°56'0 0.0
2015-Mar-19 09:34N 49°10' W 123°56'0 0.0
2015-Mar-19 08:33N 49°10' W 123°56'0 0.0
2015-Mar-19 07:33N 49°10' W 123°56'0 0.0
2015-Mar-19 06:33N 49°10' W 123°56'0 0.0
2015-Mar-19 05:33N 49°10' W 123°56'0 0.0
2015-Mar-19 04:33N 49°10' W 123°56'0 0.0
2015-Mar-19 03:29N 49°10' W 123°56'0 0.0
2015-Mar-19 02:33N 49°10' W 123°56'0 0.0
2015-Mar-19 01:33N 49°10' W 123°56'0 0.0
2015-Mar-19 00:13N 49°10' W 123°56'1 1.0
2015-Mar-18 23:33N 49°10' W 123°55'3 2.9
2015-Mar-18 22:33N 49°13' W 123°54'6 6.3
2015-Mar-18 21:31N 49°16' W 124°03'8 6.0
2015-Mar-18 20:09N 49°19' W 124°14'3 5.2
2015-Mar-18 19:32N 49°18' W 124°10'10 9.8
2015-Mar-18 18:33N 49°14' W 123°57'10 9.1
2015-Mar-18 17:26N 49°06' W 123°46'4 4.4
2015-Mar-18 16:33N 49°04' W 123°41'3 2.8
2015-Mar-18 15:32N 49°05' W 123°45'6 5.6
2015-Mar-18 14:28N 49°09' W 123°52'3 2.8
2015-Mar-18 13:33N 49°10' W 123°56'0 0.0
2015-Mar-18 12:33N 49°10' W 123°56'0 0.0
2015-Mar-18 11:33N 49°10' W 123°56'0 0.0
2015-Mar-18 10:33N 49°10' W 123°56'0 0.0
2015-Mar-18 09:33N 49°10' W 123°56'0 0.0
2015-Mar-18 08:33N 49°10' W 123°56'0 0.0
2015-Mar-18 07:33N 49°10' W 123°56'0 0.0
2015-Mar-18 06:32N 49°10' W 123°56'0 0.0
2015-Mar-18 05:15N 49°10' W 123°56'0 0.0
2015-Mar-18 04:25N 49°10' W 123°56'0 0.0
2015-Mar-18 03:29N 49°10' W 123°56'0 0.0
2015-Mar-18 02:33N 49°10' W 123°56'0 0.0
2015-Mar-18 01:33N 49°10' W 123°56'0 0.0
2015-Mar-18 00:26N 49°10' W 123°56'0 0.0
2015-Mar-17 23:08N 49°10' W 123°56'0 0.0
2015-Mar-17 22:09N 49°10' W 123°56'0 0.0
2015-Mar-17 21:33N 49°10' W 123°56'0 0.0
2015-Mar-17 20:33N 49°10' W 123°56'0 0.0
2015-Mar-17 19:32N 49°10' W 123°56'0 0.0
2015-Mar-17 18:33N 49°10' W 123°56'0 0.0
2015-Mar-17 17:32N 49°10' W 123°56'0 0.0
2015-Mar-17 16:33N 49°10' W 123°56'0 0.0
2015-Mar-17 15:33N 49°10' W 123°56'0 0.0
2015-Mar-17 14:33N 49°10' W 123°56'0 0.0
2015-Mar-17 13:33N 49°10' W 123°56'0 0.0
2015-Mar-17 12:33N 49°10' W 123°56'0 0.0
2015-Mar-17 11:33N 49°10' W 123°56'0 0.0
2015-Mar-17 10:33N 49°10' W 123°56'0 0.0
2015-Mar-17 09:33N 49°10' W 123°56'0 0.0
2015-Mar-17 08:33N 49°10' W 123°56'0 0.0
2015-Mar-17 07:33N 49°10' W 123°56'0 0.0
2015-Mar-17 06:33N 49°10' W 123°56'0 0.0
2015-Mar-17 05:33N 49°10' W 123°56'0 0.0
2015-Mar-17 04:33N 49°10' W 123°56'0 0.0
2015-Mar-17 03:16N 49°10' W 123°56'0 0.0
2015-Mar-17 02:15N 49°10' W 123°56'0 0.0
2015-Mar-17 01:33N 49°10' W 123°56'0 0.0
2015-Mar-17 00:21N 49°10' W 123°56'0 0.0
2015-Mar-16 23:28N 49°10' W 123°56'1 1.6
2015-Mar-16 22:33N 49°11' W 123°55'3 3.0
2015-Mar-16 21:33N 49°14' W 123°57'0 0.0
2015-Mar-16 20:32N 49°14' W 123°57'0 0.4
2015-Mar-16 19:33N 49°14' W 123°58'0 0.2
2015-Mar-16 18:33N 49°14' W 123°58'7 6.8
2015-Mar-16 17:33N 49°17' W 124°07'5 4.4
2015-Mar-16 16:33N 49°20' W 124°12'0 0.2
2015-Mar-16 15:33N 49°20' W 124°13'1 1.0
2015-Mar-16 14:32N 49°20' W 124°14'5 5.1
2015-Mar-16 13:33N 49°21' W 124°21'0 0.0
2015-Mar-16 12:33N 49°21' W 124°21'0 0.0
2015-Mar-16 11:33N 49°21' W 124°21'0 0.0
2015-Mar-16 10:33N 49°21' W 124°21'0 0.0
2015-Mar-16 09:33N 49°21' W 124°21'0 0.0
2015-Mar-16 08:33N 49°21' W 124°21'0 0.0
2015-Mar-16 07:33N 49°21' W 124°21'0 0.0
2015-Mar-15 23:25N 49°21' W 124°21'5 1.2
2015-Mar-15 19:09N 49°20' W 124°13'5 8.6
2015-Mar-15 18:33N 49°17' W 124°07'2 1.5
2015-Mar-15 17:29N 49°18' W 124°09'3 3.1
2015-Mar-15 16:33N 49°19' W 124°13'0 0.2
2015-Mar-15 15:33N 49°19' W 124°13'0 0.1
2015-Mar-15 14:33N 49°19' W 124°13'6 5.6
2015-Mar-15 13:33N 49°21' W 124°21'0 0.0
2015-Mar-15 12:33N 49°21' W 124°21'0 0.0
2015-Mar-15 11:33N 49°21' W 124°21'0 0.0
2015-Mar-15 10:33N 49°21' W 124°21'0 0.0
2015-Mar-15 09:33N 49°21' W 124°21'0 0.0
2015-Mar-15 08:33N 49°21' W 124°21'0 0.0
2015-Mar-15 07:33N 49°21' W 124°21'0 0.0
2015-Mar-15 06:13N 49°21' W 124°21'0 0.0
2015-Mar-15 05:31N 49°21' W 124°21'0 0.0
2015-Mar-15 04:29N 49°21' W 124°21'0 0.0
2015-Mar-14 17:14N 49°21' W 124°21'0 0.1
2015-Mar-14 16:31N 49°21' W 124°21'0 0.0
2015-Mar-14 15:29N 49°21' W 124°21'0 0.0
2015-Mar-14 14:27N 49°21' W 124°21'0 0.0
2015-Mar-14 13:14N 49°21' W 124°21'0 0.0
2015-Mar-14 12:26N 49°21' W 124°21'3 0.3
2015-Mar-14 01:33N 49°21' W 124°17'9 9.6
2015-Mar-14 00:34N 49°19' W 124°02'9 9.1
2015-Mar-13 23:34N 49°18' W 123°49'9 9.1
2015-Mar-13 22:33N 49°17' W 123°35'9 9.1
2015-Mar-13 21:34N 49°16' W 123°21'9 9.4
2015-Mar-13 20:33N 49°12' W 123°08'1 1.2
2015-Mar-13 19:34N 49°12' W 123°06'0 0.0
2015-Mar-13 18:34N 49°12' W 123°06'0 0.0
2015-Mar-13 17:34N 49°12' W 123°06'0 0.0
2015-Mar-13 16:33N 49°12' W 123°06'0 0.0
2015-Mar-13 15:34N 49°12' W 123°06'0 0.0
2015-Mar-13 14:34N 49°12' W 123°06'0 0.0
2015-Mar-13 13:34N 49°12' W 123°06'0 0.0
2015-Mar-13 12:34N 49°12' W 123°06'0 0.0
2015-Mar-13 11:34N 49°12' W 123°06'0 0.0
2015-Mar-13 10:34N 49°12' W 123°06'0 0.0
2015-Mar-13 09:34N 49°12' W 123°06'0 0.0
2015-Mar-13 08:34N 49°12' W 123°06'5 4.9
2015-Mar-13 07:34N 49°14' W 123°13'8 8.3
2015-Mar-13 06:34N 49°16' W 123°25'9 8.7
2015-Mar-13 05:33N 49°18' W 123°38'10 8.6
2015-Mar-13 04:24N 49°19' W 123°53'11 8.5
2015-Mar-13 03:07N 49°21' W 124°10'5 8.4
2015-Mar-13 02:33N 49°21' W 124°17'0 0.3
2015-Mar-13 01:33N 49°21' W 124°17'1 0.6
2015-Mar-13 00:33N 49°21' W 124°16'1 0.6
2015-Mar-12 23:32N 49°21' W 124°15'0 0.4
2015-Mar-12 22:32N 49°20' W 124°15'1 0.5
2015-Mar-12 21:33N 49°20' W 124°15'0 0.2
2015-Mar-12 20:33N 49°20' W 124°15'1 1.1
2015-Mar-12 19:33N 49°20' W 124°17'1 0.6
2015-Mar-12 18:33N 49°20' W 124°16'1 0.8
2015-Mar-12 17:32N 49°20' W 124°15'2 2.2
2015-Mar-12 16:31N 49°20' W 124°18'2 0.5
2015-Mar-12 11:32N 49°21' W 124°21'0 0.0
2015-Mar-12 00:27N 49°21' W 124°21'0 0.0
2015-Mar-11 23:08N 49°21' W 124°21'0 0.0
2015-Mar-11 20:06N 49°21' W 124°21'0 0.0
2015-Mar-11 18:23N 49°21' W 124°21'0 0.0
2015-Mar-11 17:31N 49°21' W 124°21'0 0.0
2015-Mar-11 16:27N 49°21' W 124°21'0 0.0
2015-Mar-11 15:09N 49°21' W 124°21'0 0.0
2015-Mar-11 14:32N 49°21' W 124°21'0 0.0
2015-Mar-11 13:33N 49°21' W 124°21'0 0.0
2015-Mar-11 12:28N 49°21' W 124°21'0 0.0
2015-Mar-11 11:09N 49°21' W 124°21'0 0.0
2015-Mar-11 10:21N 49°21' W 124°21'0 0.0
2015-Mar-11 09:28N 49°21' W 124°21'0 0.0
2015-Mar-11 08:25N 49°21' W 124°21'0 0.0
2015-Mar-11 07:24N 49°21' W 124°21'0 0.0
2015-Mar-11 04:22N 49°21' W 124°21'0 0.0
2015-Mar-10 23:24N 49°21' W 124°21'3 1.4
2015-Mar-10 21:20N 49°20' W 124°17'7 8.7
2015-Mar-10 20:32N 49°17' W 124°07'9 8.9
2015-Mar-10 19:33N 49°13' W 123°56'9 8.5
2015-Mar-10 18:32N 49°07' W 123°47'9 8.9
2015-Mar-10 17:33N 49°01' W 123°37'8 8.3
2015-Mar-10 16:33N 48°55' W 123°29'9 8.3
2015-Mar-10 15:31N 48°47' W 123°22'9 9.0
2015-Mar-10 14:32N 48°38' W 123°21'9 9.4
2015-Mar-10 13:33N 48°30' W 123°16'9 8.5
2015-Mar-10 12:33N 48°22' W 123°22'1010.0
2015-Mar-10 11:32N 48°18' W 123°36'1010.1
2015-Mar-10 10:33N 48°20' W 123°51'55 9.1
2015-Mar-10 04:31N 48°40' W 125°08'9 9.5
2015-Mar-10 03:33N 48°45' W 125°20'10 9.8
2015-Mar-10 02:33N 48°50' W 125°32'10 9.7
2015-Mar-10 01:33N 48°56' W 125°43'10 9.5
2015-Mar-10 00:33N 49°02' W 125°56'9 9.1
2015-Mar-09 23:33N 49°07' W 126°07'9 8.5
2015-Mar-09 22:33N 49°12' W 126°18'  

Dump ship's entire track history